Hlavní strana
METAR-TAF:

METAR-TAF

Letiště :

Rimini, Itálie

zeměpisná šířka: 44-02N, zeměpisná délka: 012-37E, výška: 12 m

Aktuální stav počasí

Zpráva byla vytvořena před 35 minutami, v 21:50 UTC
Jihojihozápadní vítr 3 kt
Teplota 2°C
Vlhkost vzduchu 93%
Tlak 1026 hPa
Viditelnost: 2500 m
kouřmo

METAR: LIPR 202150Z 20003KT 2500 BR NSC 02/01 Q1026

Čas: 23:25 (22:25 UTC)

Předpověď počasí

Zpráva byla vytvořena před 2 hodinami a 25 minutami, v 20:00 UTC
Předpověď platná od 20 v 21 UTC do 21 v 06 UTC
vítr z různých směrů 4 kt
Viditelnost: 2000 m
kouřmo
Změna
od 20 v 22 UTC do 20 v 24 UTC
Viditelnost: 0200 m
mlha

TAF: LIPR 202000Z 2021/2106 VRB04KT 2000 BR NSC BECMG 2022/2024 0200 FG

Stav a předpovědi počasí z více než 4 000 letišť (zprávy METAR a TAF).

Červené a žluté tečky na mapě představují dostupné meteorologické stanice.

Když kurzor umístíte na tečku, zobrazí se název stanice.

Pak kliknutím zobrazíte stav a předpověď počasí.

Chcete-li změnit mapu, kliknutím na zelené tlačítko se znaménkem +mapu přiblížíte, kliknutím na zelené tlačítko se znaménkem – mapu oddálíte a kliknutím na zelené šipky přejdete na sousední mapy.


METAR-TAF: